EKRK/RKE METAR and TAF weather

Enter ICAO airport designator
Station Type Date Time Source
EKRK METAR 2018/07/20 14:20 UTC NOAA

EKRK 201420Z AUTO 36010KT 310V030 9999NDV NCD 23/11 Q1013


Station Type Date Time Source
EKRK Decoded METAR 2018/07/20 14:20 UTC NOAA

Koebenhavn / Roskilde, Denmark (EKRK) 55-35N 012-08E 44M
Jul 20, 2018 - 10:20 AM EDT / 2018.07.20 1420 UTC
Wind: from the N (360 degrees) at 12 MPH (10 KT) (direction variable):0
Temperature: 73 F (23 C)
Dew Point: 51 F (11 C)
Relative Humidity: 46%
Pressure (altimeter): 29.91 in. Hg (1013 hPa)
ob: EKRK 201420Z AUTO 36010KT 310V030 9999NDV NCD 23/11 Q1013
cycle: 14

Station Type Date Time Source
EKRK TAF UTC NOAA

Error!


Example: see airport list